CheckWX is a tool to help pilots better visualize weather data.  It is not intended as a substitute for an official pre-flight weather briefing.

18:50:07 UTC

79J METAR
South Alabama Regional at Bill Benton Field Airport
Andalusia, Alabama, USA
Current

54 mins ago

K79J 191756Z AUTO 26005KT 10SM FEW025 34/24 A3007 RMK AO2 TSB01E16 SLP178 T03440239 10344 20261 58017
Observed
Jul-19 @ 17:56 UTC
Wind
  • 260° at 5 KTS
Visibility
10 SM
Flight Rules
VFR
Cloud Levels
  • Few at 2,500' AGL
Temperature
34°C / 93°F
Dewpoint
24°C / 75°F
Heat Index
41°C / 105°F
Humidity
56%
Altimeter
30.07" Hg
Pressure
1018.32 hPa
Previous

1 hour ago

K79J 191722Z AUTO 00000KT 10SM CLR 33/24 A3009 RMK AO2 TSB01E16 T03280239
Observed
Jul-19 @ 17:22 UTC
Visibility
10 SM
Flight Rules
VFR
Cloud Levels
  • Clear skies
Temperature
33°C / 91°F
Dewpoint
24°C / 75°F
Heat Index
39°C / 102°F
Humidity
59%
Altimeter
30.09" Hg
Pressure
1018.92 hPa
Previous

2 hours ago

K79J 191707Z AUTO 00000KT 10SM TS CLR 32/24 A3010 RMK AO2 TSB01 T03220239
Observed
Jul-19 @ 17:07 UTC
Visibility
10 SM
Flight Rules
VFR
Conditions
Thunderstorm
Cloud Levels
  • Clear skies
Temperature
32°C / 90°F
Dewpoint
24°C / 75°F
Heat Index
38°C / 101°F
Humidity
63%
Altimeter
30.1" Hg
Pressure
1019.32 hPa